Time;durP1;ratioP1;P1;durP2;ratioP2;P2;SDS_P1;SDS_P2;PMS_P1;PMS_P2;Temp;Humidity;BMP_temperature;BMP_pressure;BME280_temperature;BME280_humidity;BME280_pressure;Samples;Min_cycle;Max_cycle;Signal;HPM_P1;HPM_P2
2021/12/29 00:01:51;;;;;;;40.92;28.00;;;3.70;99.90;;;4.17;78.70;99247.25;4937979;29;20184;-71
2021/12/29 00:04:20;;;;;;;40.88;28.35;;;3.90;99.90;;;4.03;79.23;99242.06;4937480;29;20185;-70
2021/12/29 00:06:49;;;;;;;44.67;28.13;;;3.80;99.90;;;3.86;79.13;99246.94;4951796;28;20594;-69
2021/12/29 00:09:19;;;;;;;40.72;26.90;;;3.70;99.90;;;3.96;79.28;99254.59;4938081;29;20188;-69
2021/12/29 00:11:48;;;;;;;43.20;27.67;;;3.70;99.90;;;4.17;79.35;99259.81;4938528;29;20668;-73
2021/12/29 00:14:17;;;;;;;41.95;29.17;;;3.80;99.90;;;4.01;79.26;99265.53;4938368;29;20551;-70
2021/12/29 00:16:45;;;;;;;42.47;28.50;;;3.80;99.90;;;3.84;79.37;99265.88;4937987;28;20236;-69
2021/12/29 00:19:28;;;;;;;46.97;29.05;;;3.70;99.90;;;3.86;80.03;99269.19;4938395;29;20586;-70
2021/12/29 00:21:56;;;;;;;36.38;26.85;;;3.70;99.90;;;4.05;79.56;99274.81;4937420;29;20598;-69
2021/12/29 00:24:27;;;;;;;43.95;29.30;;;3.70;99.90;;;4.46;78.74;99278.25;4951813;28;20355;-70
2021/12/29 00:26:55;;;;;;;44.72;28.98;;;4.00;99.90;;;4.48;77.74;99280.72;4937599;29;20188;-70
2021/12/29 00:29:24;;;;;;;34.83;26.67;;;4.10;99.90;;;4.33;78.74;99291.59;4937223;29;20619;-69
2021/12/29 00:32:12;;;;;;;34.40;24.95;;;4.10;99.90;;;4.57;78.33;99284.88;4937612;29;20221;-70
2021/12/29 00:34:59;;;;;;;37.60;26.77;;;4.30;99.90;;;4.44;78.48;99299.06;4937842;29;20248;-69
2021/12/29 00:37:48;;;;;;;41.30;26.38;;;4.30;99.90;;;4.24;79.02;99292.81;4958211;28;20235;-69
2021/12/29 00:40:39;;;;;;;37.03;26.27;;;4.10;99.90;;;4.21;79.56;99293.22;4940072;29;20281;-70
2021/12/29 00:43:26;;;;;;;36.58;26.60;;;4.10;99.90;;;4.09;79.26;99295.63;4939985;29;20244;-70
2021/12/29 00:46:33;;;;;;;36.95;26.50;;;4.00;99.90;;;4.06;80.24;99305.91;4954500;29;20234;-69
2021/12/29 00:49:02;;;;;;;36.13;27.02;;;3.90;99.90;;;4.23;79.43;99307.22;4953379;28;20242;-71
2021/12/29 00:51:31;;;;;;;34.42;26.23;;;4.10;99.90;;;4.68;78.45;99305.72;4945044;28;20287;-69
2021/12/29 00:54:00;;;;;;;38.50;26.95;;;4.40;99.90;;;4.29;78.65;99314.47;4936663;29;20192;-72
2021/12/29 00:56:31;;;;;;;35.55;26.15;;;4.20;99.90;;;4.18;79.79;99320.38;4926118;23;20232;-67
2021/12/29 00:59:00;;;;;;;37.25;25.45;;;4.10;99.90;;;4.38;79.23;99327.47;4899075;29;20226;-69
2021/12/29 01:01:29;;;;;;;38.17;27.85;;;4.20;99.90;;;4.44;78.76;99319.66;4899126;29;20619;-68
2021/12/29 01:04:03;;;;;;;32.30;25.00;;;4.20;99.90;;;4.14;79.16;99321.81;4899273;29;20205;-68
2021/12/29 01:06:31;;;;;;;35.20;24.50;;;4.00;99.90;;;4.22;79.84;99322.44;4898320;29;20253;-68
2021/12/29 01:09:00;;;;;;;37.67;25.90;;;4.10;99.90;;;4.50;78.81;99330.41;4933686;23;20315;-63
2021/12/29 01:11:29;;;;;;;37.60;25.58;;;4.20;99.90;;;4.35;79.02;99324.38;4952441;29;20645;-64
2021/12/29 01:13:58;;;;;;;47.30;26.60;;;4.30;99.90;;;4.53;78.80;99332.69;4954801;29;20179;-63
2021/12/29 01:16:39;;;;;;;37.00;25.92;;;4.40;99.90;;;4.41;78.67;99336.13;4954717;29;20650;-64
2021/12/29 01:19:14;;;;;;;43.80;26.88;;;4.30;99.90;;;4.23;78.86;99329.47;4954965;28;20223;-64
2021/12/29 01:21:46;;;;;;;40.60;26.70;;;4.10;99.90;;;4.21;79.51;99336.84;4955323;29;20187;-63
2021/12/29 01:24:28;;;;;;;37.58;25.13;;;4.10;99.90;;;4.23;79.37;99344.69;4955130;28;20200;-64
2021/12/29 01:26:59;;;;;;;35.47;24.60;;;4.10;99.90;;;4.37;79.44;99343.72;4954896;29;20234;-63
2021/12/29 01:29:28;;;;;;;39.55;24.88;;;4.10;99.90;;;4.48;79.28;99363.75;4954812;28;20208;-64
2021/12/29 01:31:58;;;;;;;41.60;26.90;;;4.30;99.90;;;4.37;79.85;99357.94;4954783;29;20223;-64
2021/12/29 01:34:26;;;;;;;35.15;24.38;;;4.20;99.90;;;4.54;79.20;99353.09;4955192;28;20196;-64
2021/12/29 01:36:55;;;;;;;45.17;28.33;;;4.30;99.90;;;4.41;78.32;99357.53;4954853;28;20196;-64
2021/12/29 01:39:24;;;;;;;35.47;25.13;;;4.20;99.90;;;4.47;79.22;99362.94;4954101;29;20224;-63
2021/12/29 01:41:58;;;;;;;36.75;25.38;;;4.20;99.90;;;4.29;79.51;99354.63;4954608;28;20188;-62
2021/12/29 01:44:29;;;;;;;35.75;24.95;;;4.10;99.90;;;4.40;79.70;99366.63;4954747;28;20192;-63
2021/12/29 01:47:00;;;;;;;41.38;27.90;;;4.10;99.90;;;4.21;79.86;99368.97;4954922;28;20531;-65
2021/12/29 01:49:28;;;;;;;37.65;26.25;;;4.10;99.90;;;4.16;79.75;99365.28;4954358;28;20258;-64
2021/12/29 01:52:09;;;;;;;41.20;25.13;;;4.10;99.90;;;4.19;79.87;99372.91;4954493;29;20198;-63
2021/12/29 01:54:38;;;;;;;37.15;27.67;;;4.10;99.90;;;4.38;79.27;99374.84;4952895;28;20210;-62
2021/12/29 01:57:10;;;;;;;37.67;24.33;;;4.20;99.90;;;4.31;79.16;99372.13;4954434;28;20180;-63
2021/12/29 01:59:39;;;;;;;34.88;24.08;;;4.20;99.90;;;4.39;79.41;99363.13;4954112;29;20223;-65
2021/12/29 02:02:09;;;;;;;35.47;24.88;;;4.20;99.90;;;4.01;79.58;99372.59;4954054;29;20192;-64
2021/12/29 02:04:39;;;;;;;37.63;24.27;;;4.10;99.90;;;4.02;80.35;99374.25;4954637;29;20212;-63
2021/12/29 02:07:08;;;;;;;36.92;24.77;;;4.00;99.90;;;3.77;80.54;99376.56;4954218;29;20262;-65
2021/12/29 02:09:37;;;;;;;43.58;25.77;;;3.90;99.90;;;3.45;81.82;99385.97;4954312;28;20215;-65
2021/12/29 02:12:09;;;;;;;34.50;24.65;;;3.70;99.90;;;3.52;82.36;99384.19;4954736;28;20247;-64
2021/12/29 02:14:37;;;;;;;36.45;24.05;;;3.60;99.90;;;3.75;83.03;99390.13;4954749;28;20506;-64
2021/12/29 02:17:05;;;;;;;30.25;23.88;;;3.70;99.90;;;3.68;82.60;99397.25;4955111;29;20180;-64
2021/12/29 02:19:34;;;;;;;28.17;22.52;;;3.70;99.90;;;3.70;82.52;99402.44;4954182;29;20589;-65
2021/12/29 02:22:09;;;;;;;36.42;27.30;;;3.70;99.90;;;3.68;83.18;99399.94;4955089;29;20274;-63
2021/12/29 02:24:41;;;;;;;30.60;23.13;;;3.70;99.90;;;4.08;82.40;99405.56;4954614;28;20521;-64
2021/12/29 02:27:13;;;;;;;35.85;24.23;;;3.90;99.90;;;4.07;81.88;99409.25;4954221;28;20202;-64
2021/12/29 02:29:43;;;;;;;40.25;25.52;;;4.00;99.90;;;4.21;81.38;99411.81;4958293;28;20298;-64
2021/12/29 02:32:11;;;;;;;32.70;21.55;;;4.10;99.90;;;4.35;81.58;99412.75;4959956;29;20193;-64
2021/12/29 02:34:40;;;;;;;34.55;23.58;;;4.20;99.90;;;4.46;80.97;99422.88;4959777;29;20263;-64
2021/12/29 02:37:18;;;;;;;37.88;22.90;;;4.30;99.90;;;4.33;81.10;99418.28;4959576;29;20188;-65
2021/12/29 02:39:47;;;;;;;34.22;22.88;;;4.30;99.90;;;4.31;81.52;99430.22;4958974;28;20216;-63
2021/12/29 02:42:16;;;;;;;35.30;25.25;;;4.30;99.90;;;4.34;81.54;99430.66;4959058;29;20185;-65
2021/12/29 02:44:46;;;;;;;29.98;21.83;;;4.30;99.90;;;4.43;81.00;99436.69;4958107;28;20188;-65
2021/12/29 02:47:14;;;;;;;35.42;24.23;;;4.30;99.90;;;4.43;80.77;99439.34;4954825;29;20188;-64
2021/12/29 02:49:42;;;;;;;35.50;25.95;;;4.30;99.90;;;4.62;80.14;99433.28;4953940;28;20212;-65
2021/12/29 02:52:14;;;;;;;30.60;20.92;;;4.40;99.90;;;4.76;79.84;99431.47;4954489;29;20650;-63
2021/12/29 02:54:43;;;;;;;28.67;22.48;;;4.50;99.90;;;4.67;80.27;99433.50;4954027;28;20267;-64
2021/12/29 02:57:11;;;;;;;28.60;22.20;;;4.50;99.90;;;4.64;80.32;99439.28;4954329;28;20180;-64
2021/12/29 02:59:39;;;;;;;37.75;25.25;;;4.50;99.90;;;4.67;80.06;99438.88;4954078;28;20222;-63
2021/12/29 03:02:08;;;;;;;34.17;24.33;;;4.60;99.90;;;4.78;80.00;99437.47;4953970;29;20218;-63
2021/12/29 03:04:37;;;;;;;28.88;22.65;;;4.60;99.90;;;4.71;79.93;99442.78;4953531;28;20216;-64
2021/12/29 03:07:05;;;;;;;28.38;22.17;;;4.60;99.90;;;4.63;80.00;99453.69;4953986;28;20275;-62
2021/12/29 03:09:35;;;;;;;26.17;20.40;;;4.60;99.90;;;4.66;79.85;99447.91;4953832;29;20235;-64
2021/12/29 03:12:04;;;;;;;28.25;22.73;;;4.60;99.90;;;4.80;80.04;99446.94;4953998;29;20243;-63
2021/12/29 03:14:35;;;;;;;29.25;21.05;;;4.60;99.90;;;4.75;80.03;99453.94;4953447;28;20634;-62
2021/12/29 03:17:04;;;;;;;28.92;20.10;;;4.70;99.90;;;4.85;80.00;99453.56;4953932;29;20176;-64
2021/12/29 03:19:32;;;;;;;30.73;22.27;;;4.70;99.90;;;5.26;78.95;99448.97;4953434;28;20747;-65
2021/12/29 03:22:01;;;;;;;28.60;19.48;;;4.90;99.90;;;5.05;79.46;99451.78;4953703;29;20235;-63
2021/12/29 03:24:29;;;;;;;27.30;21.70;;;4.90;99.90;;;5.25;79.29;99450.81;4953654;29;20176;-63
2021/12/29 03:26:59;;;;;;;30.83;21.52;;;5.00;99.90;;;5.42;78.34;99451.25;4953477;28;20211;-63
2021/12/29 03:29:27;;;;;;;27.10;20.83;;;5.10;99.90;;;5.19;78.56;99453.47;4953263;28;20295;-63
2021/12/29 03:31:57;;;;;;;28.95;20.77;;;5.00;99.90;;;5.22;78.71;99453.09;4957103;29;20247;-64
2021/12/29 03:34:25;;;;;;;27.15;20.70;;;5.00;99.90;;;5.26;78.64;99457.00;4956905;29;20239;-64
2021/12/29 03:36:54;;;;;;;25.75;18.67;;;5.00;99.90;;;5.17;78.69;99455.53;4957297;29;20188;-63
2021/12/29 03:39:23;;;;;;;24.92;19.55;;;5.10;99.90;;;5.12;78.78;99468.72;4956711;28;20207;-63
2021/12/29 03:41:52;;;;;;;22.52;18.83;;;5.10;99.90;;;5.11;78.98;99472.44;4956482;28;20196;-63
2021/12/29 03:44:21;;;;;;;25.40;18.75;;;5.10;99.90;;;5.03;79.41;99475.31;4956771;29;20178;-62
2021/12/29 03:46:49;;;;;;;24.05;19.80;;;5.00;99.90;;;5.44;78.48;99477.88;4956654;28;20192;-63
2021/12/29 03:49:18;;;;;;;26.77;17.92;;;5.10;99.90;;;5.46;78.63;99471.28;4956595;28;20215;-63
2021/12/29 03:51:47;;;;;;;31.60;20.55;;;5.20;99.90;;;5.58;78.32;99466.97;4956495;29;20231;-64
2021/12/29 03:54:16;;;;;;;28.40;18.50;;;5.30;99.90;;;5.44;78.57;99467.16;4955942;28;20283;-63
2021/12/29 03:56:44;;;;;;;23.35;19.15;;;5.30;99.90;;;5.36;78.77;99464.66;4956167;28;20200;-63
2021/12/29 03:59:12;;;;;;;30.23;18.25;;;5.30;99.90;;;5.35;79.34;99463.00;4956279;29;20306;-63
2021/12/29 04:01:42;;;;;;;21.20;18.25;;;5.20;99.90;;;5.56;79.02;99470.91;4956392;28;20199;-64
2021/12/29 04:04:10;;;;;;;27.38;19.88;;;5.30;99.90;;;5.38;79.02;99479.50;4956336;28;20188;-64
2021/12/29 04:06:39;;;;;;;24.58;17.40;;;5.30;99.90;;;5.28;79.38;99479.06;4956284;28;20184;-60
2021/12/29 04:09:07;;;;;;;24.58;18.67;;;5.20;99.90;;;5.42;79.55;99486.13;4955889;29;20271;-62
2021/12/29 04:11:35;;;;;;;28.40;18.42;;;5.30;99.90;;;5.29;79.69;99483.41;4956239;28;20192;-62
2021/12/29 04:14:04;;;;;;;25.45;17.98;;;5.30;99.90;;;5.63;79.12;99493.19;4956106;28;20259;-64
2021/12/29 04:16:36;;;;;;;20.90;16.85;;;5.30;99.90;;;5.67;78.61;99497.09;4956124;28;20215;-64
2021/12/29 04:19:17;;;;;;;24.35;17.00;;;5.40;99.90;;;5.85;78.25;99502.72;4956321;28;20212;-61
2021/12/29 04:21:48;;;;;;;23.70;19.02;;;5.50;99.90;;;5.59;78.88;99508.03;4956588;28;20172;-63
2021/12/29 04:24:16;;;;;;;27.30;17.02;;;5.50;99.90;;;5.50;79.46;99518.16;4956227;29;20212;-63
2021/12/29 04:26:45;;;;;;;22.13;15.77;;;5.50;99.90;;;5.40;79.85;99520.38;4955773;29;20227;-63
2021/12/29 04:29:14;;;;;;;21.42;15.35;;;5.40;99.90;;;5.41;79.44;99526.59;4956010;28;20208;-64
2021/12/29 04:31:44;;;;;;;23.58;16.38;;;5.40;99.90;;;5.43;79.54;99538.75;4955669;29;20224;-63
2021/12/29 04:34:13;;;;;;;22.13;15.77;;;5.40;99.90;;;5.40;79.45;99541.84;4955808;28;20240;-63
2021/12/29 04:36:42;;;;;;;21.98;16.85;;;5.40;99.90;;;5.26;79.85;99545.50;4956213;29;20176;-63
2021/12/29 04:39:10;;;;;;;23.85;15.65;;;5.30;99.90;;;5.38;80.04;99549.25;4955877;28;20697;-61
2021/12/29 04:41:38;;;;;;;23.05;14.90;;;5.30;99.90;;;5.34;80.36;99556.06;4955401;28;20540;-63
2021/12/29 04:44:07;;;;;;;25.38;17.67;;;5.30;99.90;;;5.30;80.59;99560.16;4956233;28;20180;-64
2021/12/29 04:46:40;;;;;;;22.98;14.80;;;5.20;99.90;;;5.31;80.45;99556.47;4955155;28;20271;-63
2021/12/29 04:49:12;;;;;;;30.42;16.35;;;5.30;99.90;;;5.28;80.51;99550.69;4955822;28;20216;-65
2021/12/29 04:51:51;;;;;;;27.50;16.65;;;5.20;99.90;;;5.66;79.60;99557.22;4955605;28;20197;-64
2021/12/29 04:54:20;;;;;;;17.63;13.68;;;5.40;99.90;;;5.59;78.93;99559.03;4954961;28;20267;-64
2021/12/29 04:56:48;;;;;;;16.42;13.73;;;5.40;99.90;;;5.53;79.14;99560.66;4955747;29;20216;-64
2021/12/29 04:59:16;;;;;;;22.25;16.30;;;5.40;99.90;;;5.30;80.25;99564.72;4955634;28;20697;-63
2021/12/29 05:01:46;;;;;;;24.23;15.70;;;5.30;99.90;;;5.33;80.84;99573.16;4956048;28;20215;-65
2021/12/29 05:04:20;;;;;;;23.58;14.38;;;5.30;99.90;;;5.34;80.92;99568.63;4956220;28;20283;-64
2021/12/29 05:09:37;;;;;;;29.92;15.88;;;5.30;99.90;;;5.26;81.46;99572.34;4956415;28;20215;-63
2021/12/29 05:12:07;;;;;;;28.05;16.05;;;5.20;99.90;;;5.42;80.74;99574.66;4955065;28;20621;-64
2021/12/29 05:14:36;;;;;;;17.27;14.23;;;5.20;99.90;;;5.38;80.63;99581.44;4954992;28;20537;-63
2021/12/29 05:17:06;;;;;;;24.13;14.57;;;5.30;99.90;;;5.41;80.72;99586.44;4954958;29;20177;-63
2021/12/29 05:19:35;;;;;;;23.83;14.43;;;5.30;99.90;;;5.33;80.90;99600.00;4954551;28;20701;-63
2021/12/29 05:22:06;;;;;;;23.63;15.27;;;5.30;99.90;;;5.35;80.72;99589.06;4954544;29;20173;-64
2021/12/29 05:24:34;;;;;;;26.52;15.35;;;5.30;99.90;;;5.45;80.44;99593.03;4954750;28;20192;-63
2021/12/29 05:27:03;;;;;;;22.52;13.23;;;5.30;99.90;;;5.41;80.34;99597.16;4954337;28;20584;-64
2021/12/29 05:29:31;;;;;;;23.65;14.00;;;5.30;99.90;;;5.46;80.45;99599.25;4954694;28;20207;-63
2021/12/29 05:32:00;;;;;;;16.92;13.40;;;5.40;99.90;;;5.36;80.46;99604.16;4954748;28;20192;-64
2021/12/29 05:34:28;;;;;;;31.33;14.85;;;5.30;99.90;;;5.38;80.89;99610.13;4954765;28;20215;-63
2021/12/29 05:36:57;;;;;;;20.90;15.10;;;5.40;99.90;;;5.38;80.58;99616.31;4954066;28;20169;-62
2021/12/29 05:39:27;;;;;;;18.92;12.68;;;5.30;99.90;;;5.36;80.89;99622.94;4954504;28;20220;-63
2021/12/29 05:41:55;;;;;;;22.73;14.77;;;5.30;99.90;;;5.42;80.45;99636.34;4954421;28;20188;-64
2021/12/29 05:44:23;;;;;;;17.20;12.35;;;5.30;99.90;;;5.37;81.30;99630.78;4954521;28;20223;-63
2021/12/29 05:46:51;;;;;;;20.33;13.45;;;5.30;99.90;;;5.34;81.29;99631.16;4954504;28;20610;-64
2021/12/29 05:49:20;;;;;;;23.17;12.70;;;5.30;99.90;;;5.34;81.25;99639.22;4954405;29;20211;-64
2021/12/29 05:51:49;;;;;;;21.40;13.30;;;5.30;99.90;;;5.32;81.30;99643.13;4954851;29;20283;-63
2021/12/29 05:54:17;;;;;;;24.00;14.20;;;5.30;99.90;;;5.23;81.49;99647.81;4953646;28;20235;-63
2021/12/29 05:56:46;;;;;;;31.73;14.55;;;5.20;99.90;;;5.40;81.70;99648.31;4954729;29;20177;-63
2021/12/29 05:59:15;;;;;;;21.38;14.30;;;5.30;99.90;;;5.41;81.09;99648.13;4952280;29;20212;-64
2021/12/29 06:01:44;;;;;;;19.15;13.60;;;5.30;99.90;;;5.42;80.80;99647.09;4935383;29;20205;-64
2021/12/29 06:04:13;;;;;;;26.33;13.50;;;5.30;99.90;;;5.42;80.62;99657.81;4935919;29;20237;-62
2021/12/29 06:06:41;;;;;;;20.45;13.52;;;5.30;99.90;;;5.49;80.72;99658.69;4934782;29;20193;-64
2021/12/29 06:09:10;;;;;;;22.83;16.23;;;5.40;99.90;;;5.43;80.90;99672.88;4934884;29;20216;-64
2021/12/29 06:11:39;;;;;;;33.45;14.20;;;5.30;99.90;;;5.30;81.28;99670.16;4935107;29;20196;-63
2021/12/29 06:14:09;;;;;;;19.92;14.27;;;5.30;99.90;;;5.35;81.28;99667.69;4934906;29;20185;-65
2021/12/29 06:16:37;;;;;;;20.42;13.60;;;5.30;99.90;;;5.36;81.55;99674.72;4934591;29;20204;-64
2021/12/29 06:19:05;;;;;;;24.00;14.23;;;5.30;99.90;;;5.38;81.35;99678.03;4934506;29;20208;-63
2021/12/29 06:21:34;;;;;;;24.25;15.75;;;5.30;99.90;;;5.52;80.98;99682.44;4934732;29;20220;-63
2021/12/29 06:24:03;;;;;;;18.13;12.77;;;5.40;99.90;;;5.71;80.83;99672.00;4934933;28;20253;-63
2021/12/29 06:26:31;;;;;;;19.77;12.77;;;5.50;99.90;;;5.61;80.70;99677.75;4934931;29;20187;-62
2021/12/29 06:28:59;;;;;;;20.50;13.02;;;5.50;99.90;;;5.62;80.43;99682.88;4934378;29;20682;-63
2021/12/29 06:31:29;;;;;;;22.10;13.38;;;5.50;99.90;;;5.55;80.97;99684.72;4934367;28;20539;-62
2021/12/29 06:33:58;;;;;;;21.02;15.23;;;5.50;99.90;;;5.59;80.70;99685.97;4934806;29;20650;-65
2021/12/29 06:36:26;;;;;;;20.70;13.85;;;5.50;99.90;;;5.58;80.98;99688.84;4934581;29;20638;-63
2021/12/29 06:38:55;;;;;;;20.15;12.48;;;5.50;99.90;;;5.68;80.61;99689.31;4934822;29;20216;-64
2021/12/29 06:41:23;;;;;;;21.98;14.13;;;5.50;99.90;;;5.60;80.68;99698.38;4934573;29;20719;-64
2021/12/29 06:43:51;;;;;;;24.13;15.65;;;5.50;99.90;;;5.53;81.25;99702.03;4934386;29;20193;-64
2021/12/29 06:46:20;;;;;;;29.83;17.35;;;5.50;99.90;;;5.55;81.51;99706.19;4934325;28;20612;-65
2021/12/29 06:48:50;;;;;;;31.77;16.45;;;5.40;99.90;;;5.61;80.93;99708.09;4931608;29;20216;-64
2021/12/29 06:51:18;;;;;;;32.83;16.30;;;5.50;99.90;;;5.62;81.45;99715.09;4934976;29;20704;-65
2021/12/29 06:53:47;;;;;;;27.58;16.08;;;5.50;99.90;;;5.69;81.19;99728.56;4934447;29;20528;-65
2021/12/29 06:56:15;;;;;;;24.08;14.88;;;5.60;99.90;;;5.64;81.54;99733.69;4934329;29;20197;-64
2021/12/29 06:58:44;;;;;;;23.25;15.93;;;5.50;99.90;;;5.63;81.13;99730.19;4934537;29;20216;-64
2021/12/29 07:01:13;;;;;;;29.75;17.42;;;5.50;99.90;;;5.71;81.74;99733.75;4934093;29;20205;-66
2021/12/29 07:03:42;;;;;;;29.70;18.85;;;5.60;99.90;;;5.90;80.68;99733.03;4934608;29;20405;-64
2021/12/29 07:06:12;;;;;;;24.20;15.52;;;5.70;99.90;;;5.63;81.35;99738.22;4937224;29;20200;-65
2021/12/29 07:09:01;;;;;;;32.78;17.67;;;5.60;99.90;;;5.92;81.02;99744.38;4937880;29;20221;-63
2021/12/29 07:11:30;;;;;;;27.65;15.13;;;5.60;99.90;;;5.71;81.00;99745.31;4898077;29;20202;-71
2021/12/29 07:14:02;;;;;;;31.73;17.90;;;5.60;99.90;;;5.71;80.52;99747.16;4897449;29;20496;-67
2021/12/29 07:16:32;;;;;;;27.40;16.98;;;5.70;99.90;;;5.63;81.34;99746.28;4898786;29;21006;-68
2021/12/29 07:19:00;;;;;;;26.05;15.45;;;5.60;99.90;;;5.56;81.58;99750.78;4899435;29;20315;-69
2021/12/29 07:21:30;;;;;;;29.65;17.17;;;5.50;99.90;;;5.64;81.66;99742.56;4899798;29;20728;-68
2021/12/29 07:23:59;;;;;;;26.55;16.05;;;5.60;99.90;;;5.71;81.30;99747.16;4900340;29;20250;-67
2021/12/29 07:26:33;;;;;;;31.58;17.50;;;5.60;99.90;;;5.50;81.76;99756.13;4899545;29;20219;-69
2021/12/29 07:29:02;;;;;;;32.60;17.98;;;5.50;99.90;;;5.51;81.83;99757.78;4899593;29;20695;-68
2021/12/29 07:31:31;;;;;;;28.40;17.48;;;5.50;99.90;;;5.37;82.66;99764.91;4899503;29;20259;-68
2021/12/29 07:34:19;;;;;;;25.95;15.55;;;5.40;99.90;;;5.38;82.50;99758.50;4896934;29;20221;-67
2021/12/29 07:36:49;;;;;;;24.95;16.50;;;5.40;99.90;;;5.38;83.06;99766.53;4899351;29;20243;-68
2021/12/29 07:39:18;;;;;;;29.77;16.67;;;5.40;99.90;;;5.37;82.79;99766.75;4898824;29;20214;-67
2021/12/29 07:41:49;;;;;;;27.23;17.63;;;5.30;99.90;;;5.39;82.88;99765.53;4899663;29;20218;-66
2021/12/29 07:44:22;;;;;;;24.52;16.40;;;5.40;99.90;;;5.36;83.17;99773.97;4898577;29;20206;-69
2021/12/29 07:46:54;;;;;;;31.50;18.65;;;5.30;99.90;;;5.46;82.52;99777.16;4899127;29;20596;-67
2021/12/29 07:49:23;;;;;;;32.63;18.17;;;5.40;99.90;;;5.44;82.75;99773.81;4899085;29;20214;-68
2021/12/29 07:51:54;;;;;;;29.40;18.45;;;5.40;99.90;;;5.56;82.49;99798.28;4899051;29;20190;-67
2021/12/29 07:54:23;;;;;;;40.28;19.05;;;5.40;99.90;;;5.83;80.99;99796.56;4899531;29;20240;-66
2021/12/29 07:56:51;;;;;;;26.42;17.23;;;5.60;99.90;;;5.56;81.42;99788.38;4899437;29;20234;-67
2021/12/29 07:59:20;;;;;;;25.23;17.13;;;5.50;99.90;;;5.55;81.64;99796.59;4899622;29;20214;-67
2021/12/29 08:01:50;;;;;;;24.05;17.30;;;5.50;99.90;;;5.53;81.98;99804.84;4900335;29;20222;-67
2021/12/29 08:04:20;;;;;;;32.75;17.60;;;5.40;99.90;;;5.45;82.27;99802.31;4901641;29;20183;-66
2021/12/29 08:06:48;;;;;;;29.17;17.05;;;5.40;99.90;;;5.42;82.25;99813.41;4904858;29;20202;-67
2021/12/29 08:09:18;;;;;;;31.08;17.48;;;5.30;99.90;;;5.47;82.15;99815.53;4903806;29;20626;-68
2021/12/29 08:11:47;;;;;;;32.67;17.30;;;5.40;99.90;;;5.58;81.46;99815.81;4906767;29;20201;-67
2021/12/29 08:14:16;;;;;;;28.10;16.48;;;5.50;99.90;;;5.68;81.48;99818.16;4904173;29;20209;-67
2021/12/29 08:16:44;;;;;;;31.58;18.45;;;5.50;99.90;;;5.74;80.59;99824.59;4905449;29;20285;-68
2021/12/29 08:19:14;;;;;;;27.65;19.77;;;5.60;99.90;;;5.66;80.71;99845.19;4907201;29;20309;-69
2021/12/29 08:21:43;;;;;;;28.05;18.33;;;5.60;99.90;;;5.66;81.23;99855.09;4905559;29;20217;-69
2021/12/29 08:24:12;;;;;;;36.67;19.50;;;5.60;99.90;;;5.69;80.93;99860.91;4908617;29;20206;-68
2021/12/29 08:26:42;;;;;;;27.13;17.45;;;5.60;99.90;;;5.64;81.22;99865.19;4916731;29;20200;-68
2021/12/29 08:29:11;;;;;;;30.58;16.88;;;5.60;99.90;;;5.57;80.92;99865.13;4918060;29;20686;-68
2021/12/29 08:31:39;;;;;;;30.33;16.23;;;5.50;99.90;;;5.45;81.53;99861.34;4917263;29;20190;-69
2021/12/29 08:34:08;;;;;;;27.52;15.98;;;5.40;99.90;;;5.57;81.88;99865.13;4915049;29;20224;-69
2021/12/29 08:36:36;;;;;;;28.95;16.20;;;5.40;99.90;;;5.59;81.45;99867.63;4907175;29;20197;-68
2021/12/29 08:39:05;;;;;;;28.27;15.80;;;5.50;99.90;;;5.73;81.09;99865.88;4898106;29;20293;-69
2021/12/29 08:41:33;;;;;;;24.40;16.33;;;5.60;99.90;;;5.75;80.84;99872.72;4897927;29;20226;-69
2021/12/29 08:44:04;;;;;;;25.13;15.27;;;5.60;99.90;;;5.78;80.71;99871.50;4898227;29;20206;-67
2021/12/29 08:46:33;;;;;;;23.50;16.15;;;5.60;99.90;;;5.78;80.74;99874.16;4898512;29;20260;-68
2021/12/29 08:49:01;;;;;;;26.58;16.30;;;5.70;99.90;;;5.84;80.77;99881.44;4898124;29;20242;-69
2021/12/29 08:51:30;;;;;;;24.30;17.25;;;5.70;99.90;;;5.85;80.26;99885.81;4898074;29;20186;-69
2021/12/29 08:53:59;;;;;;;24.52;16.10;;;5.70;99.90;;;5.88;80.35;99886.25;4898195;29;20738;-69
2021/12/29 08:56:28;;;;;;;25.83;16.10;;;5.70;99.90;;;5.80;80.55;99898.97;4897683;29;20198;-69
2021/12/29 08:58:57;;;;;;;28.40;15.60;;;5.70;99.90;;;6.00;80.05;99892.72;4898381;29;20218;-68
2021/12/29 09:01:28;;;;;;;21.95;15.15;;;5.80;99.90;;;5.98;80.29;99902.03;4898306;29;20202;-69
2021/12/29 09:03:57;;;;;;;27.85;17.10;;;5.80;99.90;;;5.90;80.32;99899.50;4897560;29;20711;-68
2021/12/29 09:06:26;;;;;;;28.33;16.60;;;5.80;99.90;;;5.92;80.65;99910.84;4896060;29;20593;-68
2021/12/29 09:08:54;;;;;;;31.13;16.83;;;5.70;99.90;;;5.90;80.27;99902.19;4905268;29;20185;-68
2021/12/29 09:11:23;;;;;;;32.42;19.08;;;5.80;99.90;;;5.90;80.87;99907.56;4903263;29;20193;-67
2021/12/29 09:13:53;;;;;;;28.15;16.77;;;5.70;99.90;;;5.98;80.62;99915.44;4905650;29;20190;-68
2021/12/29 09:16:22;;;;;;;25.45;15.77;;;5.80;99.90;;;6.03;80.15;99918.38;4897683;29;20272;-68
2021/12/29 09:18:52;;;;;;;22.92;15.57;;;5.80;99.90;;;5.82;80.99;99911.16;4897631;29;20204;-68
2021/12/29 09:21:20;;;;;;;26.30;17.85;;;5.80;99.90;;;6.10;80.22;99928.13;4905400;29;20567;-68
2021/12/29 09:23:49;;;;;;;26.35;16.73;;;5.80;99.90;;;6.22;79.65;99931.09;4897924;29;20589;-68
2021/12/29 09:26:18;;;;;;;27.90;16.80;;;6.00;99.90;;;6.18;79.47;99927.16;4897175;29;20198;-68
2021/12/29 09:28:50;;;;;;;23.00;14.57;;;6.00;99.90;;;6.21;79.80;99932.13;4898315;29;20196;-67
2021/12/29 09:31:20;;;;;;;25.92;15.65;;;6.10;99.90;;;6.24;79.91;99931.75;4900301;29;20218;-67
2021/12/29 09:33:51;;;;;;;23.65;15.35;;;6.10;99.90;;;6.34;79.47;99934.88;4900920;29;20237;-67
2021/12/29 09:36:20;;;;;;;26.38;15.30;;;6.20;99.90;;;6.15;80.15;99938.28;4903864;29;20260;-70
2021/12/29 09:38:48;;;;;;;24.83;16.15;;;6.10;99.90;;;6.38;79.65;99928.13;4897975;29;20234;-68
2021/12/29 09:41:19;;;;;;;24.48;16.17;;;6.10;99.90;;;6.33;79.63;99935.94;4897228;29;20572;-69
2021/12/29 09:43:49;;;;;;;24.17;16.92;;;6.10;99.90;;;6.48;79.23;99933.13;4898405;29;20221;-68
2021/12/29 09:46:18;;;;;;;30.02;16.75;;;6.30;99.90;;;6.55;78.94;99934.81;4898581;29;20209;-69
2021/12/29 09:48:48;;;;;;;23.80;16.27;;;6.40;99.90;;;6.51;78.93;99938.94;4900787;29;20190;-69
2021/12/29 09:51:19;;;;;;;27.30;16.70;;;6.40;99.90;;;6.43;79.27;99940.94;4898965;29;20556;-69
2021/12/29 09:53:49;;;;;;;29.15;17.33;;;6.30;99.90;;;6.48;79.15;99931.28;4899506;29;20202;-68
2021/12/29 09:56:18;;;;;;;28.52;17.55;;;6.40;99.90;;;6.55;79.09;99934.81;4898838;29;20281;-68
2021/12/29 09:58:47;;;;;;;30.48;16.45;;;6.40;99.90;;;6.63;78.76;99933.00;4898011;29;20736;-69
2021/12/29 10:01:16;;;;;;;23.52;16.45;;;6.40;99.90;;;6.54;78.79;99933.13;4897413;29;20199;-68
2021/12/29 10:03:45;;;;;;;25.02;16.92;;;6.40;99.90;;;6.37;79.14;99926.44;4897665;29;20273;-67
2021/12/29 10:06:16;;;;;;;28.73;17.20;;;6.30;99.90;;;6.39;79.44;99929.75;4897822;29;20205;-68
2021/12/29 10:08:48;;;;;;;26.17;18.25;;;6.30;99.90;;;6.37;79.23;99926.44;4897445;29;20224;-69
2021/12/29 10:11:25;;;;;;;26.45;18.73;;;6.30;99.90;;;6.29;79.73;99929.31;4897663;29;20213;-69
2021/12/29 10:13:55;;;;;;;36.20;19.65;;;6.30;99.90;;;6.38;79.75;99933.50;4896998;29;20249;-69
2021/12/29 10:16:29;;;;;;;27.08;17.50;;;6.20;99.90;;;6.52;79.04;99929.84;4896199;29;20276;-67
2021/12/29 10:19:03;;;;;;;26.38;17.08;;;6.40;99.90;;;6.52;79.33;99934.38;4896703;29;20214;-68
2021/12/29 10:21:35;;;;;;;26.40;18.05;;;6.40;99.90;;;6.45;79.46;99934.34;4896693;29;20589;-68
2021/12/29 10:24:05;;;;;;;24.98;16.63;;;6.30;99.90;;;6.42;79.38;99939.28;4897074;29;20198;-69
2021/12/29 10:26:41;;;;;;;26.45;17.50;;;6.30;99.90;;;6.55;78.97;99929.44;4897547;29;20682;-68
2021/12/29 10:29:13;;;;;;;27.95;17.73;;;6.40;99.90;;;6.54;79.38;99935.00;4897072;29;20206;-69
2021/12/29 10:31:46;;;;;;;28.63;17.10;;;6.40;99.90;;;6.55;79.12;99940.19;4896735;29;20198;-68
2021/12/29 10:34:20;;;;;;;23.92;17.55;;;6.40;99.90;;;6.43;79.93;99944.47;4902766;29;20226;-69
2021/12/29 10:36:55;;;;;;;24.83;17.73;;;6.30;99.90;;;6.47;79.70;99937.66;4899690;29;20249;-70